sensor_id;sensor_type;location;lat;lon;timestamp;temperature;humidity
435;DHT22;204;48.942;9.256;2023-08-30T00:00:18;14.40;1.00
435;DHT22;204;48.942;9.256;2023-08-30T00:02:45;14.40;1.00
435;DHT22;204;48.942;9.256;2023-08-30T00:05:11;14.50;1.00
435;DHT22;204;48.942;9.256;2023-08-30T00:07:37;14.50;1.00
435;DHT22;204;48.942;9.256;2023-08-30T00:10:03;14.60;1.00
435;DHT22;204;48.942;9.256;2023-08-30T00:12:29;14.60;1.00
435;DHT22;204;48.942;9.256;2023-08-30T00:14:55;14.60;1.00
435;DHT22;204;48.942;9.256;2023-08-30T00:17:20;14.60;1.00
435;DHT22;204;48.942;9.256;2023-08-30T00:19:46;14.60;1.00
435;DHT22;204;48.942;9.256;2023-08-30T00:22:13;14.60;1.00
435;DHT22;204;48.942;9.256;2023-08-30T00:24:39;14.60;1.00
435;DHT22;204;48.942;9.256;2023-08-30T00:27:05;14.70;1.00
435;DHT22;204;48.942;9.256;2023-08-30T00:29:30;14.70;1.00
435;DHT22;204;48.942;9.256;2023-08-30T00:31:56;14.70;1.00
435;DHT22;204;48.942;9.256;2023-08-30T00:34:22;14.70;1.00
435;DHT22;204;48.942;9.256;2023-08-30T00:36:48;14.60;1.00
435;DHT22;204;48.942;9.256;2023-08-30T00:39:14;14.60;1.00
435;DHT22;204;48.942;9.256;2023-08-30T00:41:40;14.50;1.00
435;DHT22;204;48.942;9.256;2023-08-30T00:44:05;14.50;1.00
435;DHT22;204;48.942;9.256;2023-08-30T00:46:32;14.50;1.00
435;DHT22;204;48.942;9.256;2023-08-30T00:48:59;14.50;1.00
435;DHT22;204;48.942;9.256;2023-08-30T00:51:26;14.50;1.00
435;DHT22;204;48.942;9.256;2023-08-30T00:53:52;14.50;1.00
435;DHT22;204;48.942;9.256;2023-08-30T00:56:19;14.50;1.00
435;DHT22;204;48.942;9.256;2023-08-30T00:58:45;14.50;1.00
435;DHT22;204;48.942;9.256;2023-08-30T01:01:10;14.50;1.00
435;DHT22;204;48.942;9.256;2023-08-30T01:03:37;14.40;1.00
435;DHT22;204;48.942;9.256;2023-08-30T01:06:05;14.40;1.00
435;DHT22;204;48.942;9.256;2023-08-30T01:08:31;14.40;1.00
435;DHT22;204;48.942;9.256;2023-08-30T01:11:01;14.30;1.00
435;DHT22;204;48.942;9.256;2023-08-30T01:13:30;14.30;1.00
435;DHT22;204;48.942;9.256;2023-08-30T01:15:57;14.30;1.00
435;DHT22;204;48.942;9.256;2023-08-30T01:18:26;14.20;1.00
435;DHT22;204;48.942;9.256;2023-08-30T01:20:54;14.20;1.00
435;DHT22;204;48.942;9.256;2023-08-30T01:29:11;14.00;1.00
435;DHT22;204;48.942;9.256;2023-08-30T01:31:37;13.90;1.00
435;DHT22;204;48.942;9.256;2023-08-30T01:34:04;13.80;1.00
435;DHT22;204;48.942;9.256;2023-08-30T01:36:31;13.70;1.00
435;DHT22;204;48.942;9.256;2023-08-30T01:38:58;13.70;1.00
435;DHT22;204;48.942;9.256;2023-08-30T01:41:26;13.60;1.00
435;DHT22;204;48.942;9.256;2023-08-30T01:43:52;13.60;1.00
435;DHT22;204;48.942;9.256;2023-08-30T01:46:18;13.50;1.00
435;DHT22;204;48.942;9.256;2023-08-30T01:48:47;13.50;1.00
435;DHT22;204;48.942;9.256;2023-08-30T01:51:15;13.40;1.00
435;DHT22;204;48.942;9.256;2023-08-30T01:53:42;13.40;1.00
435;DHT22;204;48.942;9.256;2023-08-30T01:56:08;13.40;1.00
435;DHT22;204;48.942;9.256;2023-08-30T01:58:34;13.30;1.00
435;DHT22;204;48.942;9.256;2023-08-30T02:01:00;13.30;1.00
435;DHT22;204;48.942;9.256;2023-08-30T02:03:26;13.20;1.00
435;DHT22;204;48.942;9.256;2023-08-30T02:06:03;13.20;1.00
435;DHT22;204;48.942;9.256;2023-08-30T02:08:41;13.10;1.00
435;DHT22;204;48.942;9.256;2023-08-30T02:11:23;13.00;1.00
435;DHT22;204;48.942;9.256;2023-08-30T02:13:53;13.00;1.00
435;DHT22;204;48.942;9.256;2023-08-30T02:16:20;12.90;1.00
435;DHT22;204;48.942;9.256;2023-08-30T02:18:47;12.90;1.00
435;DHT22;204;48.942;9.256;2023-08-30T02:21:14;12.90;1.00
435;DHT22;204;48.942;9.256;2023-08-30T02:23:40;12.90;1.00
435;DHT22;204;48.942;9.256;2023-08-30T02:26:05;12.90;1.00
435;DHT22;204;48.942;9.256;2023-08-30T02:28:31;12.90;1.00
435;DHT22;204;48.942;9.256;2023-08-30T02:30:56;12.90;1.00
435;DHT22;204;48.942;9.256;2023-08-30T02:33:22;13.00;1.00
435;DHT22;204;48.942;9.256;2023-08-30T02:35:48;12.90;1.00
435;DHT22;204;48.942;9.256;2023-08-30T02:38:13;13.00;1.00
435;DHT22;204;48.942;9.256;2023-08-30T02:40:39;13.00;1.00
435;DHT22;204;48.942;9.256;2023-08-30T02:43:04;12.90;1.00
435;DHT22;204;48.942;9.256;2023-08-30T02:45:30;12.90;1.00
435;DHT22;204;48.942;9.256;2023-08-30T02:47:56;13.00;1.00
435;DHT22;204;48.942;9.256;2023-08-30T02:50:24;12.90;1.00
435;DHT22;204;48.942;9.256;2023-08-30T02:52:51;12.90;1.00
435;DHT22;204;48.942;9.256;2023-08-30T02:55:17;13.00;1.00
435;DHT22;204;48.942;9.256;2023-08-30T02:57:42;13.00;1.00
435;DHT22;204;48.942;9.256;2023-08-30T03:00:09;13.00;1.00
435;DHT22;204;48.942;9.256;2023-08-30T03:02:34;13.00;1.00
435;DHT22;204;48.942;9.256;2023-08-30T03:05:00;13.10;1.00
435;DHT22;204;48.942;9.256;2023-08-30T03:07:28;13.10;1.00
435;DHT22;204;48.942;9.256;2023-08-30T03:09:54;13.10;1.00
435;DHT22;204;48.942;9.256;2023-08-30T03:12:19;13.20;1.00
435;DHT22;204;48.942;9.256;2023-08-30T03:14:45;13.20;1.00
435;DHT22;204;48.942;9.256;2023-08-30T03:17:11;13.30;1.00
435;DHT22;204;48.942;9.256;2023-08-30T03:19:36;13.30;1.00
435;DHT22;204;48.942;9.256;2023-08-30T03:22:02;13.40;1.00
435;DHT22;204;48.942;9.256;2023-08-30T03:24:28;13.40;1.00
435;DHT22;204;48.942;9.256;2023-08-30T03:26:53;13.30;1.00
435;DHT22;204;48.942;9.256;2023-08-30T03:29:19;13.30;1.00
435;DHT22;204;48.942;9.256;2023-08-30T03:31:44;13.30;1.00
435;DHT22;204;48.942;9.256;2023-08-30T03:34:10;13.30;1.00
435;DHT22;204;48.942;9.256;2023-08-30T03:36:37;13.20;1.00
435;DHT22;204;48.942;9.256;2023-08-30T03:39:02;13.30;1.00
435;DHT22;204;48.942;9.256;2023-08-30T03:41:28;13.30;1.00
435;DHT22;204;48.942;9.256;2023-08-30T03:43:53;13.30;1.00
435;DHT22;204;48.942;9.256;2023-08-30T03:46:19;13.30;1.00
435;DHT22;204;48.942;9.256;2023-08-30T03:48:44;13.30;1.00
435;DHT22;204;48.942;9.256;2023-08-30T03:51:10;13.30;1.00
435;DHT22;204;48.942;9.256;2023-08-30T03:53:36;13.30;1.00
435;DHT22;204;48.942;9.256;2023-08-30T03:56:01;13.20;1.00
435;DHT22;204;48.942;9.256;2023-08-30T03:58:29;13.20;1.00
435;DHT22;204;48.942;9.256;2023-08-30T04:00:54;13.30;1.00
435;DHT22;204;48.942;9.256;2023-08-30T04:03:20;13.30;1.00
435;DHT22;204;48.942;9.256;2023-08-30T04:05:45;13.30;1.00
435;DHT22;204;48.942;9.256;2023-08-30T04:08:11;13.40;1.00
435;DHT22;204;48.942;9.256;2023-08-30T04:10:38;13.40;1.00
435;DHT22;204;48.942;9.256;2023-08-30T04:13:04;13.40;1.00
435;DHT22;204;48.942;9.256;2023-08-30T04:15:36;13.40;1.00
435;DHT22;204;48.942;9.256;2023-08-30T04:18:03;13.40;1.00
435;DHT22;204;48.942;9.256;2023-08-30T04:20:29;13.40;1.00
435;DHT22;204;48.942;9.256;2023-08-30T04:22:55;13.40;1.00
435;DHT22;204;48.942;9.256;2023-08-30T04:25:22;13.40;1.00
435;DHT22;204;48.942;9.256;2023-08-30T04:27:48;13.40;1.00
435;DHT22;204;48.942;9.256;2023-08-30T04:30:13;13.40;1.00
435;DHT22;204;48.942;9.256;2023-08-30T04:32:39;13.40;1.00
435;DHT22;204;48.942;9.256;2023-08-30T04:35:05;13.40;1.00
435;DHT22;204;48.942;9.256;2023-08-30T04:37:31;13.40;1.00
435;DHT22;204;48.942;9.256;2023-08-30T04:39:57;13.40;1.00
435;DHT22;204;48.942;9.256;2023-08-30T04:42:22;13.40;1.00
435;DHT22;204;48.942;9.256;2023-08-30T04:44:48;13.50;1.00
435;DHT22;204;48.942;9.256;2023-08-30T04:47:14;13.50;1.00
435;DHT22;204;48.942;9.256;2023-08-30T04:49:39;13.60;1.00
435;DHT22;204;48.942;9.256;2023-08-30T04:52:05;13.60;1.00
435;DHT22;204;48.942;9.256;2023-08-30T04:54:31;13.60;1.00
435;DHT22;204;48.942;9.256;2023-08-30T04:56:56;13.70;1.00
435;DHT22;204;48.942;9.256;2023-08-30T04:59:22;13.70;1.00
435;DHT22;204;48.942;9.256;2023-08-30T05:01:47;13.70;1.00
435;DHT22;204;48.942;9.256;2023-08-30T05:04:13;13.70;1.00
435;DHT22;204;48.942;9.256;2023-08-30T05:06:39;13.80;1.00
435;DHT22;204;48.942;9.256;2023-08-30T05:09:04;13.80;1.00
435;DHT22;204;48.942;9.256;2023-08-30T05:11:30;13.90;1.00
435;DHT22;204;48.942;9.256;2023-08-30T05:13:56;13.90;1.00
435;DHT22;204;48.942;9.256;2023-08-30T05:16:22;14.00;1.00
435;DHT22;204;48.942;9.256;2023-08-30T05:18:48;14.00;1.00
435;DHT22;204;48.942;9.256;2023-08-30T05:21:14;14.10;1.00
435;DHT22;204;48.942;9.256;2023-08-30T05:23:40;14.10;1.00
435;DHT22;204;48.942;9.256;2023-08-30T05:26:11;14.20;1.00
435;DHT22;204;48.942;9.256;2023-08-30T05:28:39;14.30;1.00
435;DHT22;204;48.942;9.256;2023-08-30T05:31:05;14.30;1.00
435;DHT22;204;48.942;9.256;2023-08-30T05:33:31;14.40;1.00
435;DHT22;204;48.942;9.256;2023-08-30T05:35:57;14.40;1.00
435;DHT22;204;48.942;9.256;2023-08-30T05:38:22;14.50;1.00
435;DHT22;204;48.942;9.256;2023-08-30T05:40:48;14.60;1.00
435;DHT22;204;48.942;9.256;2023-08-30T05:43:13;14.70;1.00
435;DHT22;204;48.942;9.256;2023-08-30T05:45:40;14.70;1.00
435;DHT22;204;48.942;9.256;2023-08-30T05:48:06;14.70;1.00
435;DHT22;204;48.942;9.256;2023-08-30T05:50:32;14.80;1.00
435;DHT22;204;48.942;9.256;2023-08-30T05:52:57;14.90;1.00
435;DHT22;204;48.942;9.256;2023-08-30T05:55:23;15.00;1.00
435;DHT22;204;48.942;9.256;2023-08-30T05:57:48;15.10;1.00
435;DHT22;204;48.942;9.256;2023-08-30T06:00:14;15.20;1.00
435;DHT22;204;48.942;9.256;2023-08-30T06:02:41;15.20;1.00
435;DHT22;204;48.942;9.256;2023-08-30T06:05:07;15.30;1.00
435;DHT22;204;48.942;9.256;2023-08-30T06:07:32;15.40;1.00
435;DHT22;204;48.942;9.256;2023-08-30T06:09:58;15.40;1.00
435;DHT22;204;48.942;9.256;2023-08-30T06:12:24;15.50;1.00
435;DHT22;204;48.942;9.256;2023-08-30T06:14:51;15.60;1.00
435;DHT22;204;48.942;9.256;2023-08-30T06:17:18;15.70;1.00
435;DHT22;204;48.942;9.256;2023-08-30T06:19:45;15.90;1.00
435;DHT22;204;48.942;9.256;2023-08-30T06:22:11;16.00;1.00
435;DHT22;204;48.942;9.256;2023-08-30T06:24:37;16.10;1.00
435;DHT22;204;48.942;9.256;2023-08-30T06:27:03;16.20;1.00
435;DHT22;204;48.942;9.256;2023-08-30T06:29:28;16.30;1.00
435;DHT22;204;48.942;9.256;2023-08-30T06:31:54;16.40;1.00
435;DHT22;204;48.942;9.256;2023-08-30T06:34:20;16.50;1.00
435;DHT22;204;48.942;9.256;2023-08-30T06:36:45;16.60;1.00
435;DHT22;204;48.942;9.256;2023-08-30T06:39:11;16.70;1.00
435;DHT22;204;48.942;9.256;2023-08-30T06:41:36;16.80;1.00
435;DHT22;204;48.942;9.256;2023-08-30T06:44:02;16.90;1.00
435;DHT22;204;48.942;9.256;2023-08-30T06:46:28;17.00;1.00
435;DHT22;204;48.942;9.256;2023-08-30T06:48:54;17.10;1.00
435;DHT22;204;48.942;9.256;2023-08-30T06:51:19;17.30;1.00
435;DHT22;204;48.942;9.256;2023-08-30T06:53:45;17.40;1.00
435;DHT22;204;48.942;9.256;2023-08-30T06:56:12;17.50;1.00
435;DHT22;204;48.942;9.256;2023-08-30T06:58:38;17.70;1.00
435;DHT22;204;48.942;9.256;2023-08-30T07:01:04;17.90;1.00
435;DHT22;204;48.942;9.256;2023-08-30T07:03:30;18.10;1.00
435;DHT22;204;48.942;9.256;2023-08-30T07:05:55;18.20;1.00
435;DHT22;204;48.942;9.256;2023-08-30T07:08:21;18.40;1.00
435;DHT22;204;48.942;9.256;2023-08-30T07:10:46;18.50;1.00
435;DHT22;204;48.942;9.256;2023-08-30T07:13:12;18.60;1.00
435;DHT22;204;48.942;9.256;2023-08-30T07:15:42;18.70;1.00
435;DHT22;204;48.942;9.256;2023-08-30T07:18:08;18.90;1.00
435;DHT22;204;48.942;9.256;2023-08-30T07:20:35;19.00;1.00
435;DHT22;204;48.942;9.256;2023-08-30T07:23:02;19.10;1.00
435;DHT22;204;48.942;9.256;2023-08-30T07:25:29;19.20;1.00
435;DHT22;204;48.942;9.256;2023-08-30T07:27:56;19.40;1.00
435;DHT22;204;48.942;9.256;2023-08-30T07:30:21;19.50;1.00
435;DHT22;204;48.942;9.256;2023-08-30T07:32:47;19.70;1.00
435;DHT22;204;48.942;9.256;2023-08-30T07:35:13;19.80;1.00
435;DHT22;204;48.942;9.256;2023-08-30T07:37:38;20.00;1.00
435;DHT22;204;48.942;9.256;2023-08-30T07:40:04;20.10;1.00
435;DHT22;204;48.942;9.256;2023-08-30T07:42:30;20.20;1.00
435;DHT22;204;48.942;9.256;2023-08-30T07:44:56;20.30;1.00
435;DHT22;204;48.942;9.256;2023-08-30T07:47:21;20.40;99.90
435;DHT22;204;48.942;9.256;2023-08-30T07:49:47;20.50;99.90
435;DHT22;204;48.942;9.256;2023-08-30T07:52:12;20.60;99.90
435;DHT22;204;48.942;9.256;2023-08-30T07:54:40;20.70;99.90
435;DHT22;204;48.942;9.256;2023-08-30T07:57:06;20.80;99.90
435;DHT22;204;48.942;9.256;2023-08-30T07:59:38;20.90;99.90
435;DHT22;204;48.942;9.256;2023-08-30T08:02:04;21.00;99.90
435;DHT22;204;48.942;9.256;2023-08-30T08:04:32;21.10;99.90
435;DHT22;204;48.942;9.256;2023-08-30T08:06:57;21.20;99.90
435;DHT22;204;48.942;9.256;2023-08-30T08:09:23;21.30;99.90
435;DHT22;204;48.942;9.256;2023-08-30T08:11:49;21.30;99.90
435;DHT22;204;48.942;9.256;2023-08-30T08:14:15;21.40;99.90
435;DHT22;204;48.942;9.256;2023-08-30T08:16:40;21.40;99.90
435;DHT22;204;48.942;9.256;2023-08-30T08:19:06;21.40;99.90
435;DHT22;204;48.942;9.256;2023-08-30T08:21:33;21.50;99.90
435;DHT22;204;48.942;9.256;2023-08-30T08:23:59;21.60;99.90
435;DHT22;204;48.942;9.256;2023-08-30T08:26:25;21.60;99.90
435;DHT22;204;48.942;9.256;2023-08-30T08:28:51;21.60;99.90
435;DHT22;204;48.942;9.256;2023-08-30T08:31:16;21.60;99.90
435;DHT22;204;48.942;9.256;2023-08-30T08:33:43;21.70;99.90
435;DHT22;204;48.942;9.256;2023-08-30T08:36:09;21.70;99.90
435;DHT22;204;48.942;9.256;2023-08-30T08:38:34;21.80;99.90
435;DHT22;204;48.942;9.256;2023-08-30T08:41:05;21.90;99.90
435;DHT22;204;48.942;9.256;2023-08-30T08:43:32;21.90;99.90
435;DHT22;204;48.942;9.256;2023-08-30T08:46:00;21.90;99.90
435;DHT22;204;48.942;9.256;2023-08-30T08:48:31;21.90;99.90
435;DHT22;204;48.942;9.256;2023-08-30T08:50:59;21.80;99.90
435;DHT22;204;48.942;9.256;2023-08-30T08:53:25;21.60;99.90
435;DHT22;204;48.942;9.256;2023-08-30T08:55:51;21.60;99.90
435;DHT22;204;48.942;9.256;2023-08-30T08:58:17;21.50;99.90
435;DHT22;204;48.942;9.256;2023-08-30T09:00:43;21.30;99.90
435;DHT22;204;48.942;9.256;2023-08-30T09:03:10;21.20;99.90
435;DHT22;204;48.942;9.256;2023-08-30T09:05:39;21.20;99.90
435;DHT22;204;48.942;9.256;2023-08-30T09:08:06;21.30;99.90
435;DHT22;204;48.942;9.256;2023-08-30T09:10:32;21.30;99.90
435;DHT22;204;48.942;9.256;2023-08-30T09:12:59;21.30;99.90
435;DHT22;204;48.942;9.256;2023-08-30T09:15:34;21.40;99.90
435;DHT22;204;48.942;9.256;2023-08-30T09:18:02;21.60;99.90
435;DHT22;204;48.942;9.256;2023-08-30T09:20:28;21.70;99.90
435;DHT22;204;48.942;9.256;2023-08-30T09:22:53;21.70;99.90
435;DHT22;204;48.942;9.256;2023-08-30T09:25:23;21.70;99.90
435;DHT22;204;48.942;9.256;2023-08-30T09:28:01;21.80;99.90
435;DHT22;204;48.942;9.256;2023-08-30T09:30:26;21.80;99.90
435;DHT22;204;48.942;9.256;2023-08-30T09:32:52;22.00;99.90
435;DHT22;204;48.942;9.256;2023-08-30T09:35:18;22.20;99.90
435;DHT22;204;48.942;9.256;2023-08-30T09:37:47;22.20;99.90
435;DHT22;204;48.942;9.256;2023-08-30T09:40:17;22.40;99.90
435;DHT22;204;48.942;9.256;2023-08-30T09:42:43;22.50;99.90
435;DHT22;204;48.942;9.256;2023-08-30T09:45:24;22.70;99.90
435;DHT22;204;48.942;9.256;2023-08-30T09:47:50;22.80;99.90
435;DHT22;204;48.942;9.256;2023-08-30T09:50:20;22.90;99.90
435;DHT22;204;48.942;9.256;2023-08-30T09:52:49;23.00;99.90
435;DHT22;204;48.942;9.256;2023-08-30T09:55:18;23.10;99.90
435;DHT22;204;48.942;9.256;2023-08-30T09:57:44;23.30;99.90
435;DHT22;204;48.942;9.256;2023-08-30T10:00:10;23.40;99.90
435;DHT22;204;48.942;9.256;2023-08-30T10:02:41;23.50;99.90
435;DHT22;204;48.942;9.256;2023-08-30T10:05:09;23.50;99.90
435;DHT22;204;48.942;9.256;2023-08-30T10:07:36;23.50;99.90
435;DHT22;204;48.942;9.256;2023-08-30T10:10:05;23.60;99.90
435;DHT22;204;48.942;9.256;2023-08-30T10:12:32;23.80;99.90
435;DHT22;204;48.942;9.256;2023-08-30T10:14:58;23.80;99.90
435;DHT22;204;48.942;9.256;2023-08-30T10:17:27;23.70;99.90
435;DHT22;204;48.942;9.256;2023-08-30T10:19:55;23.80;99.90
435;DHT22;204;48.942;9.256;2023-08-30T10:22:21;23.90;99.90
435;DHT22;204;48.942;9.256;2023-08-30T10:24:56;23.90;99.90
435;DHT22;204;48.942;9.256;2023-08-30T10:27:24;24.10;99.90
435;DHT22;204;48.942;9.256;2023-08-30T10:29:51;24.20;99.90
435;DHT22;204;48.942;9.256;2023-08-30T10:32:20;24.20;99.90
435;DHT22;204;48.942;9.256;2023-08-30T10:34:50;24.30;99.90
435;DHT22;204;48.942;9.256;2023-08-30T10:37:16;24.20;99.90
435;DHT22;204;48.942;9.256;2023-08-30T10:39:42;24.30;99.90
435;DHT22;204;48.942;9.256;2023-08-30T10:42:13;24.40;99.90
435;DHT22;204;48.942;9.256;2023-08-30T10:44:58;24.40;99.90
435;DHT22;204;48.942;9.256;2023-08-30T10:47:26;24.50;99.90
435;DHT22;204;48.942;9.256;2023-08-30T10:49:54;24.50;99.90
435;DHT22;204;48.942;9.256;2023-08-30T10:52:23;24.50;99.90
435;DHT22;204;48.942;9.256;2023-08-30T10:54:49;24.40;99.90
435;DHT22;204;48.942;9.256;2023-08-30T10:57:23;24.40;99.90
435;DHT22;204;48.942;9.256;2023-08-30T11:02:49;24.30;99.90
435;DHT22;204;48.942;9.256;2023-08-30T11:05:21;24.30;99.90
435;DHT22;204;48.942;9.256;2023-08-30T11:07:47;24.20;99.90
435;DHT22;204;48.942;9.256;2023-08-30T11:10:15;24.40;99.90
435;DHT22;204;48.942;9.256;2023-08-30T11:12:41;24.50;99.90
435;DHT22;204;48.942;9.256;2023-08-30T11:15:09;24.60;99.90
435;DHT22;204;48.942;9.256;2023-08-30T11:17:34;24.70;99.90
435;DHT22;204;48.942;9.256;2023-08-30T11:20:13;24.70;99.90
435;DHT22;204;48.942;9.256;2023-08-30T11:22:44;24.90;99.90
435;DHT22;204;48.942;9.256;2023-08-30T11:25:11;24.90;99.90
435;DHT22;204;48.942;9.256;2023-08-30T11:27:37;25.10;99.90
435;DHT22;204;48.942;9.256;2023-08-30T11:30:04;25.40;99.90
435;DHT22;204;48.942;9.256;2023-08-30T11:32:43;25.70;99.90
435;DHT22;204;48.942;9.256;2023-08-30T11:35:08;25.90;99.90
435;DHT22;204;48.942;9.256;2023-08-30T11:37:34;26.20;99.90
435;DHT22;204;48.942;9.256;2023-08-30T11:40:03;26.40;99.90
435;DHT22;204;48.942;9.256;2023-08-30T11:42:30;26.50;99.90
435;DHT22;204;48.942;9.256;2023-08-30T11:44:56;26.70;99.90
435;DHT22;204;48.942;9.256;2023-08-30T11:47:24;26.70;99.90
435;DHT22;204;48.942;9.256;2023-08-30T11:49:54;26.70;99.90
435;DHT22;204;48.942;9.256;2023-08-30T11:52:20;26.70;99.90
435;DHT22;204;48.942;9.256;2023-08-30T11:54:49;26.60;99.90
435;DHT22;204;48.942;9.256;2023-08-30T11:57:16;26.40;99.90
435;DHT22;204;48.942;9.256;2023-08-30T11:59:41;26.30;99.90
435;DHT22;204;48.942;9.256;2023-08-30T12:02:08;26.10;99.90
435;DHT22;204;48.942;9.256;2023-08-30T12:04:47;26.10;99.90
435;DHT22;204;48.942;9.256;2023-08-30T12:07:23;25.90;99.90
435;DHT22;204;48.942;9.256;2023-08-30T12:09:48;25.90;99.90
435;DHT22;204;48.942;9.256;2023-08-30T12:12:14;25.70;99.90
435;DHT22;204;48.942;9.256;2023-08-30T12:14:40;25.60;99.90
435;DHT22;204;48.942;9.256;2023-08-30T12:17:06;25.50;99.90
435;DHT22;204;48.942;9.256;2023-08-30T12:19:34;25.30;99.90
435;DHT22;204;48.942;9.256;2023-08-30T12:22:06;25.20;99.90
435;DHT22;204;48.942;9.256;2023-08-30T12:27:08;24.80;99.90
435;DHT22;204;48.942;9.256;2023-08-30T12:29:34;24.60;99.90
435;DHT22;204;48.942;9.256;2023-08-30T12:32:00;24.50;99.90
435;DHT22;204;48.942;9.256;2023-08-30T12:34:25;24.40;99.90
435;DHT22;204;48.942;9.256;2023-08-30T12:36:51;24.40;99.90
435;DHT22;204;48.942;9.256;2023-08-30T12:39:16;24.30;99.90
435;DHT22;204;48.942;9.256;2023-08-30T12:41:42;24.40;99.90
435;DHT22;204;48.942;9.256;2023-08-30T12:44:08;24.30;99.90
435;DHT22;204;48.942;9.256;2023-08-30T12:46:33;24.30;99.90
435;DHT22;204;48.942;9.256;2023-08-30T12:48:59;24.40;99.90
435;DHT22;204;48.942;9.256;2023-08-30T12:51:25;24.60;99.90
435;DHT22;204;48.942;9.256;2023-08-30T12:53:50;24.80;99.90
435;DHT22;204;48.942;9.256;2023-08-30T12:56:16;25.10;99.90
435;DHT22;204;48.942;9.256;2023-08-30T12:58:41;25.30;99.90
435;DHT22;204;48.942;9.256;2023-08-30T13:01:07;25.50;99.90
435;DHT22;204;48.942;9.256;2023-08-30T13:03:32;25.70;99.90
435;DHT22;204;48.942;9.256;2023-08-30T13:05:58;26.00;99.90
435;DHT22;204;48.942;9.256;2023-08-30T13:08:24;26.10;99.90
435;DHT22;204;48.942;9.256;2023-08-30T13:10:49;26.30;99.90
435;DHT22;204;48.942;9.256;2023-08-30T13:13:15;26.40;99.90
435;DHT22;204;48.942;9.256;2023-08-30T13:15:41;26.50;99.90
435;DHT22;204;48.942;9.256;2023-08-30T13:18:06;26.70;99.90
435;DHT22;204;48.942;9.256;2023-08-30T13:20:32;26.80;99.90
435;DHT22;204;48.942;9.256;2023-08-30T13:22:57;26.80;99.90
435;DHT22;204;48.942;9.256;2023-08-30T13:25:23;26.80;99.90
435;DHT22;204;48.942;9.256;2023-08-30T13:27:49;26.90;99.90
435;DHT22;204;48.942;9.256;2023-08-30T13:30:14;26.90;99.90
435;DHT22;204;48.942;9.256;2023-08-30T13:32:40;26.60;99.90
435;DHT22;204;48.942;9.256;2023-08-30T13:35:05;26.50;99.90
435;DHT22;204;48.942;9.256;2023-08-30T13:37:31;26.50;99.90
435;DHT22;204;48.942;9.256;2023-08-30T13:39:57;26.40;99.90
435;DHT22;204;48.942;9.256;2023-08-30T13:42:22;26.20;99.90
435;DHT22;204;48.942;9.256;2023-08-30T13:44:50;26.00;99.90
435;DHT22;204;48.942;9.256;2023-08-30T13:47:16;25.90;99.90
435;DHT22;204;48.942;9.256;2023-08-30T13:49:42;25.80;99.90
435;DHT22;204;48.942;9.256;2023-08-30T13:52:07;25.60;99.90
435;DHT22;204;48.942;9.256;2023-08-30T13:54:33;25.50;99.90
435;DHT22;204;48.942;9.256;2023-08-30T13:56:58;25.40;99.90
435;DHT22;204;48.942;9.256;2023-08-30T13:59:24;25.20;99.90
435;DHT22;204;48.942;9.256;2023-08-30T14:01:50;25.10;99.90
435;DHT22;204;48.942;9.256;2023-08-30T14:04:15;25.00;99.90
435;DHT22;204;48.942;9.256;2023-08-30T14:06:41;24.80;99.90
435;DHT22;204;48.942;9.256;2023-08-30T14:09:06;24.70;99.90
435;DHT22;204;48.942;9.256;2023-08-30T14:11:34;24.70;99.90
435;DHT22;204;48.942;9.256;2023-08-30T14:14:02;24.50;99.90
435;DHT22;204;48.942;9.256;2023-08-30T14:16:27;24.20;99.90
435;DHT22;204;48.942;9.256;2023-08-30T14:18:53;24.10;99.90
435;DHT22;204;48.942;9.256;2023-08-30T14:21:18;24.00;99.90
435;DHT22;204;48.942;9.256;2023-08-30T14:23:44;24.00;99.90
435;DHT22;204;48.942;9.256;2023-08-30T14:26:09;24.10;99.90
435;DHT22;204;48.942;9.256;2023-08-30T14:28:36;24.20;99.90
435;DHT22;204;48.942;9.256;2023-08-30T14:31:02;24.20;99.90
435;DHT22;204;48.942;9.256;2023-08-30T14:33:30;24.30;99.90
435;DHT22;204;48.942;9.256;2023-08-30T14:35:55;24.20;99.90
435;DHT22;204;48.942;9.256;2023-08-30T14:38:22;24.10;99.90
435;DHT22;204;48.942;9.256;2023-08-30T14:41:00;24.00;99.90
435;DHT22;204;48.942;9.256;2023-08-30T14:43:30;24.00;99.90
435;DHT22;204;48.942;9.256;2023-08-30T14:46:03;23.80;99.90
435;DHT22;204;48.942;9.256;2023-08-30T14:48:30;23.70;99.90
435;DHT22;204;48.942;9.256;2023-08-30T14:50:57;23.80;99.90
435;DHT22;204;48.942;9.256;2023-08-30T14:53:23;23.80;99.90
435;DHT22;204;48.942;9.256;2023-08-30T14:55:48;23.90;99.90
435;DHT22;204;48.942;9.256;2023-08-30T14:58:14;24.00;99.90
435;DHT22;204;48.942;9.256;2023-08-30T15:00:40;24.00;99.90
435;DHT22;204;48.942;9.256;2023-08-30T15:03:06;24.10;99.90
435;DHT22;204;48.942;9.256;2023-08-30T15:05:31;24.10;99.90
435;DHT22;204;48.942;9.256;2023-08-30T15:07:57;24.20;99.90
435;DHT22;204;48.942;9.256;2023-08-30T15:10:23;24.20;99.90
435;DHT22;204;48.942;9.256;2023-08-30T15:12:49;24.20;99.90
435;DHT22;204;48.942;9.256;2023-08-30T15:15:15;24.10;99.90
435;DHT22;204;48.942;9.256;2023-08-30T15:17:40;24.00;99.90
435;DHT22;204;48.942;9.256;2023-08-30T15:20:07;24.00;99.90
435;DHT22;204;48.942;9.256;2023-08-30T15:22:33;24.00;99.90
435;DHT22;204;48.942;9.256;2023-08-30T15:24:59;24.10;99.90
435;DHT22;204;48.942;9.256;2023-08-30T15:27:30;24.00;99.90
435;DHT22;204;48.942;9.256;2023-08-30T15:29:55;24.00;99.90
435;DHT22;204;48.942;9.256;2023-08-30T15:32:22;24.10;99.90
435;DHT22;204;48.942;9.256;2023-08-30T15:34:49;24.10;99.90
435;DHT22;204;48.942;9.256;2023-08-30T15:37:15;24.20;99.90
435;DHT22;204;48.942;9.256;2023-08-30T15:39:41;24.30;99.90
435;DHT22;204;48.942;9.256;2023-08-30T15:42:06;24.40;99.90
435;DHT22;204;48.942;9.256;2023-08-30T15:44:32;24.40;99.90
435;DHT22;204;48.942;9.256;2023-08-30T15:46:57;24.20;99.90
435;DHT22;204;48.942;9.256;2023-08-30T15:49:23;24.00;99.90
435;DHT22;204;48.942;9.256;2023-08-30T15:51:48;23.80;99.90
435;DHT22;204;48.942;9.256;2023-08-30T15:54:14;23.60;99.90
435;DHT22;204;48.942;9.256;2023-08-30T15:56:41;23.50;99.90
435;DHT22;204;48.942;9.256;2023-08-30T15:59:07;23.40;99.90
435;DHT22;204;48.942;9.256;2023-08-30T16:01:32;23.30;99.90
435;DHT22;204;48.942;9.256;2023-08-30T16:03:58;23.30;99.90
435;DHT22;204;48.942;9.256;2023-08-30T16:06:23;23.30;99.90
435;DHT22;204;48.942;9.256;2023-08-30T16:08:49;23.20;99.90
435;DHT22;204;48.942;9.256;2023-08-30T16:11:14;23.10;99.90
435;DHT22;204;48.942;9.256;2023-08-30T16:13:40;23.00;99.90
435;DHT22;204;48.942;9.256;2023-08-30T16:16:06;22.90;99.90
435;DHT22;204;48.942;9.256;2023-08-30T16:18:31;22.80;99.90
435;DHT22;204;48.942;9.256;2023-08-30T16:20:57;22.80;99.90
435;DHT22;204;48.942;9.256;2023-08-30T16:23:23;22.70;99.90
435;DHT22;204;48.942;9.256;2023-08-30T16:25:49;22.50;99.90
435;DHT22;204;48.942;9.256;2023-08-30T16:28:14;22.50;99.90
435;DHT22;204;48.942;9.256;2023-08-30T16:30:40;22.40;99.90
435;DHT22;204;48.942;9.256;2023-08-30T16:33:06;22.30;99.90
435;DHT22;204;48.942;9.256;2023-08-30T16:35:32;22.20;99.90
435;DHT22;204;48.942;9.256;2023-08-30T16:37:58;22.10;99.90
435;DHT22;204;48.942;9.256;2023-08-30T16:40:23;22.00;99.90
435;DHT22;204;48.942;9.256;2023-08-30T16:42:49;21.90;99.90
435;DHT22;204;48.942;9.256;2023-08-30T16:45:15;21.70;99.90
435;DHT22;204;48.942;9.256;2023-08-30T16:47:40;21.60;99.90